createdAt,value
2019-06-01T00:01:55.983Z,10.47
2019-06-01T00:04:24.524Z,13.10
2019-06-01T00:06:53.091Z,10.43
2019-06-01T00:09:21.555Z,12.17
2019-06-01T00:11:50.087Z,12.47
2019-06-01T00:14:18.588Z,12.70
2019-06-01T00:16:48.020Z,12.73
2019-06-01T00:19:16.671Z,12.60
2019-06-01T00:21:45.452Z,12.83
2019-06-01T00:24:14.118Z,13.73
2019-06-01T00:26:43.696Z,15.00
2019-06-01T00:29:12.337Z,18.60
2019-06-01T00:31:41.199Z,18.70
2019-06-01T00:34:09.823Z,19.03
2019-06-01T00:36:38.339Z,20.43
2019-06-01T00:39:07.555Z,16.57
2019-06-01T00:41:36.141Z,20.40
2019-06-01T00:44:04.930Z,16.03
2019-06-01T00:46:33.389Z,18.00
2019-06-01T00:49:01.864Z,20.87
2019-06-01T00:51:30.385Z,20.90
2019-06-01T00:53:58.836Z,21.30
2019-06-01T00:56:27.303Z,19.33
2019-06-01T00:58:55.827Z,24.83
2019-06-01T01:01:24.434Z,22.40
2019-06-01T01:03:54.335Z,20.13
2019-06-01T01:06:23.053Z,24.10
2019-06-01T01:08:52.828Z,25.87
2019-06-01T01:11:21.579Z,23.97
2019-06-01T01:13:51.205Z,32.00
2019-06-01T01:16:19.908Z,24.37
2019-06-01T01:18:49.645Z,27.40
2019-06-01T01:21:18.335Z,28.50
2019-06-01T01:23:48.032Z,26.67
2019-06-01T01:26:16.788Z,28.63
2019-06-01T01:28:46.619Z,28.70
2019-06-01T01:31:15.302Z,27.40
2019-06-01T01:33:43.766Z,28.53
2019-06-01T01:36:12.351Z,30.90
2019-06-01T01:38:40.912Z,27.97
2019-06-01T01:41:09.378Z,25.37
2019-06-01T01:43:37.882Z,30.70
2019-06-01T01:46:06.560Z,27.07
2019-06-01T01:48:35.051Z,31.13
2019-06-01T01:51:03.632Z,29.47
2019-06-01T01:53:32.095Z,26.70
2019-06-01T01:56:01.196Z,26.17
2019-06-01T01:58:31.187Z,22.90
2019-06-01T02:01:00.326Z,26.53
2019-06-01T02:03:29.949Z,23.63
2019-06-01T02:05:59.110Z,23.53
2019-06-01T02:08:27.989Z,25.33
2019-06-01T02:10:57.479Z,25.20
2019-06-01T02:13:26.310Z,23.37
2019-06-01T02:15:56.066Z,21.07
2019-06-01T02:18:24.704Z,24.80
2019-06-01T02:20:54.391Z,19.20
2019-06-01T02:23:23.110Z,23.93
2019-06-01T02:25:52.798Z,22.13
2019-06-01T02:28:21.764Z,19.73
2019-06-01T02:30:50.295Z,19.83
2019-06-01T02:33:18.756Z,23.03
2019-06-01T02:35:47.337Z,24.87
2019-06-01T02:38:15.874Z,20.93
2019-06-01T02:40:44.576Z,18.63
2019-06-01T02:43:14.498Z,18.00
2019-06-01T02:45:43.021Z,19.80
2019-06-01T02:48:11.566Z,18.93
2019-06-01T02:50:40.259Z,24.27
2019-06-01T02:53:08.766Z,19.60
2019-06-01T02:55:37.304Z,23.63
2019-06-01T02:58:06.736Z,24.03
2019-06-01T03:00:47.567Z,30.53
2019-06-01T03:03:36.930Z,29.07
2019-06-01T03:06:07.708Z,30.00
2019-06-01T03:08:37.871Z,29.73
2019-06-01T03:11:07.989Z,28.43
2019-06-01T03:13:39.686Z,29.60
2019-06-01T03:16:10.524Z,29.83
2019-06-01T03:18:41.486Z,30.93
2019-06-01T03:21:13.162Z,25.83
2019-06-01T03:23:43.786Z,25.20
2019-06-01T03:26:15.395Z,23.33
2019-06-01T03:28:45.837Z,28.93
2019-06-01T03:31:15.198Z,24.23
2019-06-01T03:33:43.721Z,29.03
2019-06-01T03:36:13.145Z,28.30
2019-06-01T03:38:41.899Z,26.10
2019-06-01T03:41:10.434Z,26.87
2019-06-01T03:43:38.992Z,24.83
2019-06-01T03:46:08.658Z,28.30
2019-06-01T03:48:37.234Z,24.30
2019-06-01T03:51:05.789Z,28.70
2019-06-01T03:53:34.354Z,22.00
2019-06-01T03:56:03.232Z,25.63
2019-06-01T03:58:31.860Z,27.50
2019-06-01T04:01:00.912Z,25.90
2019-06-01T04:03:29.571Z,29.83
2019-06-01T04:05:58.049Z,25.73
2019-06-01T04:08:26.561Z,26.60
2019-06-01T04:10:55.015Z,30.40
2019-06-01T04:13:23.618Z,26.37
2019-06-01T04:15:52.236Z,28.33
2019-06-01T04:18:20.772Z,29.50
2019-06-01T04:20:49.255Z,29.17
2019-06-01T04:23:17.897Z,25.43
2019-06-01T04:25:46.440Z,29.77
2019-06-01T04:28:14.914Z,31.00
2019-06-01T04:30:43.648Z,30.87
2019-06-01T04:33:13.275Z,28.07
2019-06-01T04:35:41.879Z,28.93
2019-06-01T04:38:11.255Z,28.13
2019-06-01T04:40:39.754Z,29.73
2019-06-01T04:43:08.238Z,30.20
2019-06-01T04:45:37.050Z,30.33
2019-06-01T04:48:06.390Z,28.50
2019-06-01T04:50:35.431Z,28.53
2019-06-01T04:53:04.635Z,25.93
2019-06-01T04:55:33.398Z,26.27
2019-06-01T04:58:02.432Z,25.83
2019-06-01T05:00:31.268Z,24.77
2019-06-01T05:03:05.194Z,26.03
2019-06-01T05:05:30.689Z,24.17
2019-06-01T05:08:00.122Z,24.03
2019-06-01T05:10:28.992Z,22.27
2019-06-01T05:12:57.513Z,24.10
2019-06-01T05:15:26.392Z,20.97
2019-06-01T05:17:55.272Z,24.10
2019-06-01T05:20:23.812Z,20.87
2019-06-01T05:22:52.414Z,19.30
2019-06-01T05:25:20.890Z,20.47
2019-06-01T05:27:49.430Z,17.30
2019-06-01T05:30:18.202Z,14.73
2019-06-01T05:32:46.862Z,17.87
2019-06-01T05:35:16.321Z,17.93
2019-06-01T05:37:44.829Z,12.60
2019-06-01T05:40:14.648Z,12.23
2019-06-01T05:42:43.355Z,12.67
2019-06-01T05:45:13.007Z,12.23
2019-06-01T05:47:41.957Z,10.53
2019-06-01T05:50:10.881Z,9.53
2019-06-01T05:52:39.469Z,9.23
2019-06-01T05:55:08.636Z,9.80
2019-06-01T05:57:37.448Z,11.07
2019-06-01T06:00:10.880Z,9.20
2019-06-01T06:02:39.600Z,10.57
2019-06-01T06:05:08.695Z,9.37
2019-06-01T06:07:37.737Z,10.77
2019-06-01T06:10:07.145Z,12.53
2019-06-01T06:12:35.855Z,10.50
2019-06-01T06:15:08.711Z,8.47
2019-06-01T06:17:37.176Z,8.60
2019-06-01T06:20:06.529Z,7.50
2019-06-01T06:22:35.119Z,9.30
2019-06-01T06:25:04.917Z,13.00
2019-06-01T06:27:33.464Z,11.20
2019-06-01T06:30:02.122Z,9.97
2019-06-01T06:32:30.580Z,8.73
2019-06-01T06:34:59.113Z,10.30
2019-06-01T06:37:27.650Z,6.63
2019-06-01T06:39:56.178Z,8.90
2019-06-01T06:42:24.704Z,9.77
2019-06-01T06:44:53.219Z,8.17
2019-06-01T06:47:23.022Z,11.57
2019-06-01T06:49:51.629Z,10.33
2019-06-01T06:52:21.474Z,7.17
2019-06-01T06:54:50.473Z,10.10
2019-06-01T06:57:20.171Z,9.37
2019-06-01T06:59:48.945Z,10.03
2019-06-01T07:02:18.675Z,11.27
2019-06-01T07:04:47.349Z,11.73
2019-06-01T07:07:17.473Z,9.63
2019-06-01T07:09:46.300Z,11.53
2019-06-01T07:12:14.935Z,11.00
2019-06-01T07:14:43.611Z,10.57
2019-06-01T07:17:15.574Z,9.90
2019-06-01T07:19:42.324Z,11.03
2019-06-01T07:22:10.911Z,8.93
2019-06-01T07:24:39.533Z,11.53
2019-06-01T07:27:08.275Z,9.77
2019-06-01T07:29:36.877Z,8.80
2019-06-01T07:32:05.643Z,12.80
2019-06-01T07:34:41.885Z,13.47
2019-06-01T07:37:04.555Z,8.93
2019-06-01T07:39:33.552Z,11.63
2019-06-01T07:42:05.578Z,11.43
2019-06-01T07:44:34.435Z,8.80
2019-06-01T07:47:02.973Z,13.90
2019-06-01T07:49:31.754Z,8.27
2019-06-01T07:52:12.086Z,11.67
2019-06-01T07:54:30.883Z,9.93
2019-06-01T07:56:59.414Z,14.53
2019-06-01T07:59:28.452Z,10.10
2019-06-01T08:01:57.577Z,13.17
2019-06-01T08:04:28.088Z,10.20
2019-06-01T08:06:56.938Z,9.13
2019-06-01T08:09:26.522Z,12.27
2019-06-01T08:11:55.739Z,11.67
2019-06-01T08:14:24.556Z,9.93
2019-06-01T08:16:53.223Z,9.70
2019-06-01T08:19:22.064Z,10.03
2019-06-01T08:21:50.775Z,9.47
2019-06-01T08:24:19.586Z,11.73
2019-06-01T08:26:48.523Z,8.50
2019-06-01T08:29:17.486Z,8.33
2019-06-01T08:31:46.165Z,8.40
2019-06-01T08:34:14.682Z,8.20
2019-06-01T08:36:43.404Z,9.68
2019-06-01T08:39:11.861Z,9.35
2019-06-01T08:41:40.482Z,9.08
2019-06-01T08:44:09.498Z,9.38
2019-06-01T08:46:38.249Z,9.18
2019-06-01T08:49:06.768Z,7.42
2019-06-01T08:51:35.431Z,7.15
2019-06-01T08:54:04.514Z,8.35
2019-06-01T08:56:34.477Z,9.15
2019-06-01T08:59:03.237Z,13.95
2019-06-01T09:01:32.793Z,7.08
2019-06-01T09:04:01.374Z,9.55
2019-06-01T09:06:30.963Z,9.20
2019-06-01T09:08:59.788Z,9.95
2019-06-01T09:11:29.230Z,6.70
2019-06-01T09:13:58.112Z,7.47
2019-06-01T09:16:27.809Z,9.13
2019-06-01T09:18:56.447Z,9.10
2019-06-01T09:21:25.384Z,7.90
2019-06-01T09:23:54.226Z,8.23
2019-06-01T09:26:22.700Z,10.50
2019-06-01T09:28:51.198Z,8.80
2019-06-01T09:31:19.670Z,8.05
2019-06-01T09:33:48.213Z,11.75
2019-06-01T09:36:17.060Z,10.30
2019-06-01T09:38:45.712Z,8.28
2019-06-01T09:41:14.400Z,8.55
2019-06-01T09:43:43.197Z,12.00
2019-06-01T09:46:11.742Z,8.98
2019-06-01T09:48:40.292Z,8.68
2019-06-01T09:51:08.889Z,7.50
2019-06-01T09:53:38.110Z,11.45
2019-06-01T09:56:07.115Z,10.23
2019-06-01T09:58:36.878Z,7.78
2019-06-01T10:01:05.766Z,10.90
2019-06-01T10:03:34.581Z,10.23
2019-06-01T10:06:03.245Z,10.20
2019-06-01T10:08:32.594Z,8.45
2019-06-01T10:11:01.592Z,9.98
2019-06-01T10:13:30.514Z,14.60
2019-06-01T10:15:59.155Z,9.45
2019-06-01T10:18:27.814Z,8.55
2019-06-01T10:20:56.601Z,9.73
2019-06-01T10:23:25.120Z,9.28
2019-06-01T10:25:53.575Z,9.03
2019-06-01T10:28:22.735Z,9.00
2019-06-01T10:30:51.219Z,9.30
2019-06-01T10:33:19.742Z,10.40
2019-06-01T10:35:48.611Z,13.25
2019-06-01T10:38:17.155Z,13.10
2019-06-01T10:40:45.682Z,12.33
2019-06-01T10:43:14.265Z,9.05
2019-06-01T10:45:43.157Z,10.30
2019-06-01T10:48:11.761Z,8.58
2019-06-01T10:50:40.652Z,12.65
2019-06-01T10:53:09.288Z,8.98
2019-06-01T10:55:38.441Z,8.60
2019-06-01T10:58:08.471Z,10.90
2019-06-01T11:00:43.320Z,11.33
2019-06-01T11:03:07.206Z,9.93
2019-06-01T11:05:36.742Z,10.68
2019-06-01T11:08:05.587Z,9.33
2019-06-01T11:10:34.839Z,7.87
2019-06-01T11:13:03.792Z,8.43
2019-06-01T11:15:32.898Z,7.92
2019-06-01T11:18:01.772Z,8.83
2019-06-01T11:20:30.466Z,8.50
2019-06-01T11:22:59.005Z,7.45
2019-06-01T11:25:27.586Z,7.62
2019-06-01T11:27:56.175Z,9.60
2019-06-01T11:30:24.891Z,8.93
2019-06-01T11:32:53.533Z,9.18
2019-06-01T11:35:22.126Z,9.05
2019-06-01T11:37:50.620Z,7.72
2019-06-01T11:40:19.092Z,6.97
2019-06-01T11:42:47.660Z,6.95
2019-06-01T11:45:19.354Z,7.85
2019-06-01T11:47:47.810Z,6.85
2019-06-01T11:50:16.457Z,10.15
2019-06-01T11:52:45.515Z,7.70
2019-06-01T11:55:14.503Z,7.37
2019-06-01T11:57:43.500Z,7.90
2019-06-01T12:00:13.772Z,6.85
2019-06-01T12:02:43.719Z,8.23
2019-06-01T12:05:12.946Z,6.90
2019-06-01T12:07:41.946Z,8.00
2019-06-01T12:10:11.176Z,7.03
2019-06-01T12:12:40.173Z,8.45
2019-06-01T12:15:09.488Z,8.03
2019-06-01T12:17:38.718Z,7.47
2019-06-01T12:20:08.475Z,7.40
2019-06-01T12:22:37.024Z,7.65
2019-06-01T12:25:06.350Z,9.03
2019-06-01T12:27:34.877Z,6.67
2019-06-01T12:30:05.333Z,8.53
2019-06-01T12:32:33.846Z,6.37
2019-06-01T12:35:03.504Z,6.28
2019-06-01T12:37:52.401Z,6.03
2019-06-01T12:40:02.888Z,6.42
2019-06-01T12:42:31.345Z,6.47
2019-06-01T12:44:59.811Z,6.95
2019-06-01T12:47:28.721Z,7.35
2019-06-01T12:49:57.271Z,6.95
2019-06-01T12:52:25.825Z,6.05
2019-06-01T12:54:54.448Z,6.90
2019-06-01T12:57:22.989Z,7.58
2019-06-01T12:59:53.125Z,6.40
2019-06-01T13:02:21.933Z,6.72
2019-06-01T13:04:50.601Z,8.63
2019-06-01T13:07:20.478Z,6.75
2019-06-01T13:09:49.146Z,8.48
2019-06-01T13:12:18.856Z,7.92
2019-06-01T13:14:47.313Z,7.97
2019-06-01T13:17:15.969Z,10.03
2019-06-01T13:19:45.272Z,7.03
2019-06-01T13:22:13.961Z,7.08
2019-06-01T13:24:43.679Z,6.65
2019-06-01T13:27:12.376Z,8.05
2019-06-01T13:29:41.689Z,8.60
2019-06-01T13:32:10.383Z,9.60
2019-06-01T13:34:38.917Z,8.03
2019-06-01T13:37:07.688Z,10.10
2019-06-01T13:39:36.269Z,10.00
2019-06-01T13:42:04.915Z,8.98
2019-06-01T13:44:33.430Z,7.25
2019-06-01T13:47:02.083Z,7.67
2019-06-01T13:49:30.612Z,7.90
2019-06-01T13:51:59.373Z,7.92
2019-06-01T13:54:27.872Z,10.88
2019-06-01T13:56:56.359Z,9.45
2019-06-01T13:59:24.889Z,7.42
2019-06-01T14:01:53.387Z,7.62
2019-06-01T14:04:22.009Z,7.47
2019-06-01T14:06:51.156Z,7.25
2019-06-01T14:09:22.051Z,9.13
2019-06-01T14:11:51.509Z,7.58
2019-06-01T14:14:20.289Z,7.67
2019-06-01T14:16:49.485Z,7.10
2019-06-01T14:19:18.378Z,7.22
2019-06-01T14:21:47.790Z,9.28
2019-06-01T14:24:16.666Z,8.05
2019-06-01T14:26:46.010Z,6.83
2019-06-01T14:29:14.768Z,6.28
2019-06-01T14:31:43.738Z,7.85
2019-06-01T14:34:12.250Z,7.08
2019-06-01T14:36:40.754Z,6.05
2019-06-01T14:39:09.417Z,6.08
2019-06-01T14:41:38.027Z,8.95
2019-06-01T14:44:06.635Z,6.70
2019-06-01T14:46:50.286Z,5.70
2019-06-01T14:49:05.457Z,5.35
2019-06-01T14:51:34.168Z,4.60
2019-06-01T14:54:02.826Z,3.77
2019-06-01T14:56:31.611Z,5.30
2019-06-01T14:59:02.156Z,5.42
2019-06-01T15:01:32.929Z,3.60
2019-06-01T15:04:01.288Z,4.33
2019-06-01T15:06:29.800Z,3.33
2019-06-01T15:09:17.209Z,3.47
2019-06-01T15:11:28.632Z,3.98
2019-06-01T15:13:58.519Z,3.25
2019-06-01T15:16:27.411Z,3.17
2019-06-01T15:18:56.152Z,3.85
2019-06-01T15:21:24.676Z,3.67
2019-06-01T15:23:53.868Z,3.37
2019-06-01T15:26:22.514Z,5.90
2019-06-01T15:28:51.312Z,3.80
2019-06-01T15:31:23.187Z,4.90
2019-06-01T15:33:51.642Z,3.45
2019-06-01T15:36:20.286Z,5.90
2019-06-01T15:38:49.022Z,4.17
2019-06-01T15:41:17.666Z,3.33
2019-06-01T15:43:46.162Z,3.90
2019-06-01T15:46:14.826Z,3.08
2019-06-01T15:48:43.363Z,3.70
2019-06-01T15:51:12.502Z,4.12
2019-06-01T15:53:41.115Z,5.33
2019-06-01T15:56:09.749Z,2.60
2019-06-01T15:58:51.735Z,3.35
2019-06-01T16:01:10.282Z,3.12
2019-06-01T16:03:38.833Z,2.83
2019-06-01T16:06:07.366Z,4.97
2019-06-01T16:08:35.911Z,2.15
2019-06-01T16:11:06.386Z,2.62
2019-06-01T16:13:34.805Z,2.47
2019-06-01T16:16:03.944Z,2.95
2019-06-01T16:18:33.798Z,2.72
2019-06-01T16:21:02.406Z,2.55
2019-06-01T16:23:46.169Z,2.50
2019-06-01T16:26:10.874Z,4.50
2019-06-01T16:28:31.367Z,4.10
2019-06-01T16:31:00.576Z,4.37
2019-06-01T16:33:29.117Z,5.40
2019-06-01T16:35:58.833Z,4.37
2019-06-01T16:38:27.475Z,2.27
2019-06-01T16:40:57.030Z,3.55
2019-06-01T16:43:25.738Z,4.15
2019-06-01T16:45:55.503Z,5.35
2019-06-01T16:48:24.284Z,5.22
2019-06-01T16:50:52.892Z,4.60
2019-06-01T16:53:22.241Z,5.45
2019-06-01T16:55:50.703Z,4.53
2019-06-01T16:58:19.271Z,5.90
2019-06-01T17:00:48.017Z,5.50
2019-06-01T17:03:16.642Z,4.83
2019-06-01T17:05:45.146Z,5.37
2019-06-01T17:08:14.070Z,6.08
2019-06-01T17:10:42.648Z,7.33
2019-06-01T17:13:11.333Z,4.35
2019-06-01T17:15:40.089Z,4.37
2019-06-01T17:18:10.461Z,6.40
2019-06-01T17:20:48.060Z,5.20
2019-06-01T17:23:27.374Z,5.10
2019-06-01T17:25:48.338Z,3.95
2019-06-01T17:28:17.163Z,4.97
2019-06-01T17:30:45.964Z,5.62
2019-06-01T17:33:14.424Z,5.10
2019-06-01T17:35:43.014Z,3.00
2019-06-01T17:38:12.678Z,3.22
2019-06-01T17:40:43.226Z,4.65
2019-06-01T17:43:12.833Z,5.83
2019-06-01T17:45:42.008Z,5.97
2019-06-01T17:48:25.760Z,5.00
2019-06-01T17:50:41.285Z,3.23
2019-06-01T17:53:10.322Z,3.73
2019-06-01T17:55:39.665Z,3.47
2019-06-01T17:58:10.044Z,4.37
2019-06-01T18:00:39.833Z,4.70
2019-06-01T18:03:09.695Z,3.60
2019-06-01T18:05:38.908Z,3.27
2019-06-01T18:08:08.122Z,3.67
2019-06-01T18:10:52.589Z,3.60
2019-06-01T18:13:08.648Z,5.47
2019-06-01T18:15:37.584Z,4.13
2019-06-01T18:18:06.693Z,5.33
2019-06-01T18:20:35.829Z,6.20
2019-06-01T18:23:07.160Z,4.20
2019-06-01T18:25:35.339Z,5.60
2019-06-01T18:28:04.541Z,5.03
2019-06-01T18:30:33.584Z,5.37
2019-06-01T18:33:02.997Z,6.17
2019-06-01T18:35:32.646Z,8.67
2019-06-01T18:38:01.341Z,4.57
2019-06-01T18:40:30.107Z,8.30
2019-06-01T18:43:06.051Z,3.90
2019-06-01T18:45:35.526Z,5.73
2019-06-01T18:48:05.954Z,4.10
2019-06-01T18:50:35.068Z,7.47
2019-06-01T18:53:03.971Z,4.57
2019-06-01T18:55:35.529Z,4.10
2019-06-01T18:58:03.964Z,5.47
2019-06-01T19:00:32.798Z,5.47
2019-06-01T19:03:01.420Z,3.47
2019-06-01T19:05:30.014Z,6.03
2019-06-01T19:07:58.528Z,5.57
2019-06-01T19:10:27.214Z,4.03
2019-06-01T19:12:55.824Z,5.87
2019-06-01T19:15:28.655Z,4.10
2019-06-01T19:17:54.809Z,4.40
2019-06-01T19:20:23.356Z,4.00
2019-06-01T19:22:52.231Z,4.20
2019-06-01T19:25:24.120Z,6.23
2019-06-01T19:27:52.739Z,9.17
2019-06-01T19:30:39.102Z,4.37
2019-06-01T19:33:10.948Z,4.47
2019-06-01T19:35:39.572Z,6.50
2019-06-01T19:38:09.112Z,7.00
2019-06-01T19:40:39.338Z,8.17
2019-06-01T19:43:09.431Z,6.30
2019-06-01T19:45:38.549Z,5.70
2019-06-01T19:48:08.239Z,5.10
2019-06-01T19:50:37.264Z,7.07
2019-06-01T19:53:06.113Z,4.90
2019-06-01T19:55:35.101Z,4.13
2019-06-01T19:58:04.073Z,4.30
2019-06-01T20:00:32.656Z,4.83
2019-06-01T20:03:01.107Z,9.47
2019-06-01T20:05:29.885Z,7.33
2019-06-01T20:07:59.010Z,8.10
2019-06-01T20:10:27.555Z,5.20
2019-06-01T20:12:56.022Z,6.47
2019-06-01T20:15:25.009Z,7.27
2019-06-01T20:17:53.492Z,6.03
2019-06-01T20:20:23.132Z,5.30
2019-06-01T20:22:51.792Z,6.43
2019-06-01T20:25:21.541Z,8.27
2019-06-01T20:27:50.429Z,5.40
2019-06-01T20:30:19.925Z,8.13
2019-06-01T20:32:48.679Z,7.60
2019-06-01T20:35:18.060Z,7.77
2019-06-01T20:37:46.851Z,10.80
2019-06-01T20:40:16.246Z,8.57
2019-06-01T20:42:44.870Z,8.67
2019-06-01T20:45:14.577Z,9.43
2019-06-01T20:47:43.230Z,8.03
2019-06-01T20:50:12.656Z,9.03
2019-06-01T20:52:41.384Z,6.57
2019-06-01T20:55:10.154Z,6.77
2019-06-01T20:57:38.635Z,6.37
2019-06-01T21:00:08.952Z,6.47
2019-06-01T21:02:37.615Z,6.87
2019-06-01T21:05:07.729Z,6.43
2019-06-01T21:07:36.384Z,7.93
2019-06-01T21:10:09.862Z,8.80
2019-06-01T21:12:46.210Z,7.53
2019-06-01T21:15:09.488Z,4.97
2019-06-01T21:17:38.165Z,8.00
2019-06-01T21:20:10.471Z,8.03
2019-06-01T21:22:39.498Z,12.40
2019-06-01T21:25:08.193Z,7.40
2019-06-01T21:27:36.727Z,7.20
2019-06-01T21:30:09.346Z,9.97
2019-06-01T21:32:37.894Z,6.53
2019-06-01T21:35:07.113Z,6.47
2019-06-01T21:37:35.725Z,8.20
2019-06-01T21:40:06.841Z,7.80
2019-06-01T21:42:38.450Z,9.10
2019-06-01T21:45:07.770Z,7.07
2019-06-01T21:47:36.362Z,8.33
2019-06-01T21:50:06.469Z,8.23
2019-06-01T21:52:35.111Z,8.73
2019-06-01T21:55:05.511Z,10.03
2019-06-01T21:57:33.996Z,4.50
2019-06-01T22:00:02.890Z,5.90
2019-06-01T22:02:31.501Z,5.87
2019-06-01T22:05:00.037Z,11.03
2019-06-01T22:07:28.610Z,6.57
2019-06-01T22:09:57.150Z,6.50
2019-06-01T22:12:25.809Z,8.27
2019-06-01T22:14:54.504Z,9.77
2019-06-01T22:17:26.070Z,7.33
2019-06-01T22:19:54.569Z,4.93
2019-06-01T22:22:23.828Z,8.37
2019-06-01T22:24:52.438Z,6.90
2019-06-01T22:27:22.102Z,5.53
2019-06-01T22:29:51.000Z,7.27
2019-06-01T22:32:23.085Z,7.50
2019-06-01T22:34:49.741Z,6.80
2019-06-01T22:37:19.690Z,8.87
2019-06-01T22:39:48.321Z,6.97
2019-06-01T22:42:16.827Z,4.97
2019-06-01T22:44:45.366Z,9.77
2019-06-01T22:47:13.844Z,7.90
2019-06-01T22:49:42.380Z,7.47
2019-06-01T22:52:10.909Z,9.43
2019-06-01T22:54:39.387Z,7.77
2019-06-01T22:57:07.916Z,7.57
2019-06-01T22:59:36.509Z,9.63
2019-06-01T23:02:05.198Z,7.40
2019-06-01T23:04:33.664Z,5.57
2019-06-01T23:07:02.247Z,10.27
2019-06-01T23:09:31.670Z,5.87
2019-06-01T23:12:00.280Z,5.70
2019-06-01T23:14:29.470Z,11.33
2019-06-01T23:16:58.117Z,8.40
2019-06-01T23:19:27.921Z,7.30
2019-06-01T23:21:56.628Z,4.63
2019-06-01T23:24:26.110Z,9.20
2019-06-01T23:26:54.731Z,10.27
2019-06-01T23:29:26.070Z,8.53
2019-06-01T23:31:54.728Z,8.37
2019-06-01T23:34:24.865Z,7.03
2019-06-01T23:36:53.646Z,8.67
2019-06-01T23:39:22.708Z,9.23
2019-06-01T23:41:51.348Z,7.53
2019-06-01T23:44:19.876Z,8.43
2019-06-01T23:46:48.420Z,9.67
2019-06-01T23:49:17.023Z,6.47
2019-06-01T23:51:45.528Z,6.47
2019-06-01T23:54:14.078Z,8.73
2019-06-01T23:56:42.584Z,8.70
2019-06-01T23:59:12.778Z,8.33
